Time;durP1;ratioP1;P1;durP2;ratioP2;P2;SDS_P1;SDS_P2;PMS_P1;PMS_P2;Temp;Humidity;BMP_temperature;BMP_pressure;BME280_temperature;BME280_humidity;BME280_pressure;Samples;Min_cycle;Max_cycle;Signal;HPM_P1;HPM_P2
2021/06/08 00:01:41;;;;;;;8.87;8.13;;;;;;;14.04;100.00;97684.25;4993310;28;20227;-82
2021/06/08 00:04:08;;;;;;;8.73;8.03;;;;;;;14.04;100.00;97822.56;4993200;28;20205;-82
2021/06/08 00:06:35;;;;;;;9.23;8.43;;;;;;;14.05;100.00;97757.31;4993324;28;20200;-82
2021/06/08 00:09:02;;;;;;;8.63;7.73;;;;;;;14.00;100.00;97675.78;4992971;28;20196;-83
2021/06/08 00:11:32;;;;;;;9.10;8.20;;;;;;;13.93;100.00;97397.19;4993287;28;20207;-82
2021/06/08 00:13:59;;;;;;;17.27;7.53;;;;;;;14.00;100.00;96034.56;4992999;28;20204;-82
2021/06/08 00:16:27;;;;;;;19.17;10.30;;;;;;;14.23;100.00;95259.19;4993503;28;20204;-83
2021/06/08 00:18:54;;;;;;;22.13;9.77;;;;;;;14.17;100.00;95082.97;4992739;28;20255;-83
2021/06/08 00:21:21;;;;;;;16.97;8.07;;;;;;;14.18;100.00;95229.94;4993382;28;20631;-82
2021/06/08 00:23:48;;;;;;;14.50;8.67;;;;;;;14.21;100.00;95501.72;4992845;28;20203;-83
2021/06/08 00:26:15;;;;;;;10.87;8.47;;;;;;;14.32;100.00;95688.00;4991835;28;20201;-83
2021/06/08 00:28:42;;;;;;;10.03;9.13;;;;;;;14.49;100.00;95845.31;4991280;28;20585;-83
2021/06/08 00:31:09;;;;;;;10.30;9.40;;;;;;;14.64;100.00;95973.00;4993200;28;20259;-83
2021/06/08 00:33:37;;;;;;;9.40;8.47;;;;;;;14.78;100.00;96061.22;4992722;28;20263;-82
2021/06/08 00:36:05;;;;;;;8.93;8.13;;;;;;;14.72;100.00;96107.78;4992844;28;20205;-82
2021/06/08 00:38:32;;;;;;;9.23;8.50;;;;;;;14.83;100.00;96140.06;4992546;28;20208;-82
2021/06/08 00:41:01;;;;;;;8.53;7.83;;;;;;;14.87;100.00;96157.19;4992642;28;20201;-82
2021/06/08 00:43:28;;;;;;;7.90;7.20;;;;;;;14.81;100.00;96171.97;4992596;28;20248;-83
2021/06/08 00:45:55;;;;;;;9.17;8.37;;;;;;;14.75;100.00;96170.06;4993065;28;20548;-82
2021/06/08 00:48:22;;;;;;;8.90;8.20;;;;;;;14.91;100.00;96163.72;4992440;28;20211;-82
2021/06/08 00:50:51;;;;;;;8.93;8.10;;;;;;;14.72;100.00;96144.81;4992824;28;20211;-82
2021/06/08 00:53:18;;;;;;;9.37;8.60;;;;;;;14.70;100.00;96149.47;4992448;28;20197;-82
2021/06/08 00:55:45;;;;;;;24.20;10.27;;;;;;;14.69;100.00;96152.31;4992643;28;20200;-82
2021/06/08 00:58:12;;;;;;;10.93;9.83;;;;;;;14.63;100.00;96150.41;4992699;28;20255;-82
2021/06/08 01:00:39;;;;;;;11.30;9.47;;;;;;;14.60;100.00;96164.00;4992726;28;20235;-82
2021/06/08 01:03:06;;;;;;;10.80;9.90;;;;;;;14.60;100.00;96178.03;4992367;28;20659;-82
2021/06/08 01:05:33;;;;;;;10.50;9.53;;;;;;;14.54;100.00;96189.34;4992608;28;20583;-82
2021/06/08 01:08:01;;;;;;;10.60;9.60;;;;;;;14.67;100.00;96200.09;4992722;28;20258;-82
2021/06/08 01:10:28;;;;;;;10.50;9.50;;;;;;;14.67;100.00;96204.56;4992734;28;20274;-82
2021/06/08 01:12:55;;;;;;;8.80;8.00;;;;;;;14.79;100.00;96216.34;4992659;28;20196;-82
2021/06/08 01:15:22;;;;;;;9.07;8.27;;;;;;;14.72;100.00;96221.53;4992336;28;20247;-82
2021/06/08 01:17:50;;;;;;;12.50;8.47;;;;;;;14.71;100.00;96219.06;4992498;28;20204;-82
2021/06/08 01:20:18;;;;;;;9.23;8.43;;;;;;;14.78;100.00;96225.25;4992231;28;20738;-82
2021/06/08 01:22:47;;;;;;;10.10;9.20;;;;;;;14.78;100.00;96219.97;4992623;28;20239;-82
2021/06/08 01:25:14;;;;;;;9.40;8.47;;;;;;;14.80;100.00;96231.19;4992187;28;20263;-82
2021/06/08 01:27:42;;;;;;;10.03;8.37;;;;;;;14.77;100.00;96241.31;4992172;28;20240;-82
2021/06/08 01:30:10;;;;;;;7.63;7.03;;;;;;;14.68;100.00;96246.69;4992191;28;20196;-82
2021/06/08 01:32:40;;;;;;;9.63;8.70;;;;;;;14.57;100.00;96264.88;4992309;28;20648;-82
2021/06/08 01:35:09;;;;;;;8.33;7.50;;;;;;;14.57;100.00;96292.13;4992012;28;20236;-82
2021/06/08 01:37:37;;;;;;;9.67;7.87;;;;;;;14.48;100.00;96315.19;4992049;28;20212;-82
2021/06/08 01:40:08;;;;;;;11.97;7.30;;;;;;;14.37;100.00;96330.66;4992134;28;20247;-82
2021/06/08 01:42:36;;;;;;;8.30;7.30;;;;;;;14.31;100.00;96342.00;4992205;28;20215;-82
2021/06/08 01:45:03;;;;;;;8.00;7.23;;;;;;;14.13;100.00;96363.44;4991963;28;20211;-83
2021/06/08 01:47:30;;;;;;;8.37;7.67;;;;;;;14.19;100.00;96375.94;4991916;28;20212;-82
2021/06/08 01:49:57;;;;;;;10.97;7.80;;;;;;;14.21;100.00;96411.78;4994313;28;20691;-82
2021/06/08 01:52:36;;;;;;;14.00;7.70;;;;;;;14.13;100.00;96421.59;4995912;28;20196;-83
2021/06/08 01:55:11;;;;;;;12.70;7.93;;;;;;;14.14;100.00;96444.41;4995662;28;20716;-82
2021/06/08 01:57:44;;;;;;;18.83;10.10;;;;;;;14.13;100.00;96455.94;4995849;28;20192;-82
2021/06/08 02:00:16;;;;;;;21.57;8.67;;;;;;;14.09;100.00;96465.22;4995593;28;20185;-82
2021/06/08 02:03:08;;;;;;;12.80;8.63;;;;;;;14.10;100.00;96477.44;4996180;28;20212;-82
2021/06/08 02:05:42;;;;;;;9.40;8.60;;;;;;;14.15;100.00;96486.50;4995262;28;20263;-82
2021/06/08 02:08:21;;;;;;;15.67;9.70;;;;;;;14.11;100.00;96501.06;4995632;28;20225;-82
2021/06/08 02:10:53;;;;;;;9.20;8.40;;;;;;;14.04;100.00;96515.97;4995467;28;20276;-82
2021/06/08 02:13:30;;;;;;;9.17;8.07;;;;;;;14.16;100.00;96519.03;4995077;28;20197;-82
2021/06/08 02:16:00;;;;;;;18.67;8.97;;;;;;;14.12;100.00;96530.97;4995452;28;20188;-82
2021/06/08 02:18:29;;;;;;;15.37;7.87;;;;;;;14.07;100.00;96543.88;4995234;28;20204;-82
2021/06/08 02:20:59;;;;;;;17.17;7.60;;;;;;;13.98;100.00;96562.41;4995658;28;20200;-82
2021/06/08 02:23:27;;;;;;;12.17;7.47;;;;;;;13.92;100.00;96570.19;4995411;28;20236;-82
2021/06/08 02:25:57;;;;;;;15.30;7.57;;;;;;;13.97;100.00;96594.31;4995014;28;20204;-83
2021/06/08 02:28:28;;;;;;;13.27;7.27;;;;;;;13.94;100.00;96611.31;4995251;28;20196;-82
2021/06/08 02:30:56;;;;;;;15.43;7.87;;;;;;;14.18;100.00;96620.16;4995442;28;20637;-82
2021/06/08 02:33:26;;;;;;;20.73;7.33;;;;;;;14.09;100.00;96634.38;4994737;28;20263;-82
2021/06/08 02:35:53;;;;;;;7.03;6.40;;;;;;;14.13;100.00;96630.41;4995132;28;20183;-82
2021/06/08 02:38:21;;;;;;;7.73;7.07;;;;;;;13.81;100.00;96642.72;4994859;28;20239;-82
2021/06/08 02:40:49;;;;;;;10.27;6.67;;;;;;;13.54;100.00;96655.34;4994791;28;20204;-82
2021/06/08 02:43:19;;;;;;;9.27;7.20;;;;;;;13.41;100.00;96670.06;4994895;28;20224;-82
2021/06/08 02:45:47;;;;;;;9.40;7.13;;;;;;;13.41;100.00;96684.09;4994905;28;20275;-82
2021/06/08 02:48:16;;;;;;;9.10;8.30;;;;;;;13.52;100.00;96691.66;4994698;28;20258;-82
2021/06/08 02:50:46;;;;;;;8.57;7.70;;;;;;;13.61;100.00;96692.47;4994857;28;20200;-83
2021/06/08 02:53:13;;;;;;;8.57;7.73;;;;;;;13.59;100.00;96701.56;4994615;28;20196;-82
2021/06/08 02:55:42;;;;;;;7.30;6.70;;;;;;;13.64;100.00;96697.41;4994603;28;20231;-82
2021/06/08 02:58:10;;;;;;;9.50;8.63;;;;;;;13.61;100.00;96699.56;4994304;28;20207;-82
2021/06/08 03:00:39;;;;;;;8.70;7.80;;;;;;;13.74;100.00;96713.91;4994269;28;20204;-82
2021/06/08 03:03:08;;;;;;;9.30;8.40;;;;;;;13.54;100.00;96721.38;4994337;28;20227;-82
2021/06/08 03:05:39;;;;;;;9.37;8.23;;;;;;;13.33;100.00;96739.50;4994504;28;20212;-82
2021/06/08 03:08:13;;;;;;;9.10;8.20;;;;;;;13.49;100.00;96752.72;4994462;28;20689;-82
2021/06/08 03:10:42;;;;;;;9.50;8.53;;;;;;;13.64;100.00;96760.81;4994674;28;20251;-82
2021/06/08 03:13:12;;;;;;;9.47;8.67;;;;;;;13.76;100.00;96774.53;4994525;28;20624;-82
2021/06/08 03:15:44;;;;;;;8.23;7.53;;;;;;;13.94;100.00;96776.97;4994800;28;20235;-82
2021/06/08 03:18:16;;;;;;;8.23;7.60;;;;;;;14.09;100.00;96782.41;4993993;28;20192;-82
2021/06/08 03:20:48;;;;;;;9.97;8.90;;;;;;;14.20;100.00;96792.63;4994663;28;20192;-83
2021/06/08 03:23:19;;;;;;;14.03;12.70;;;;;;;14.17;100.00;96791.16;4993956;28;20216;-82
2021/06/08 03:25:49;;;;;;;10.47;9.47;;;;;;;14.19;100.00;96793.63;4994495;28;20279;-82
2021/06/08 03:28:18;;;;;;;10.70;9.60;;;;;;;14.26;100.00;96797.25;4994248;28;20228;-82
2021/06/08 03:30:48;;;;;;;8.00;7.30;;;;;;;14.32;100.00;96796.56;4994050;28;20595;-83
2021/06/08 03:33:15;;;;;;;9.03;8.13;;;;;;;14.37;100.00;96786.28;4993314;28;20223;-83
2021/06/08 03:35:42;;;;;;;10.03;9.20;;;;;;;14.39;100.00;96786.97;4987337;28;20204;-83
2021/06/08 03:38:10;;;;;;;11.50;10.43;;;;;;;14.48;100.00;96772.72;4991984;28;20255;-83
2021/06/08 03:40:37;;;;;;;9.80;9.00;;;;;;;14.41;100.00;96774.41;4992856;28;20208;-84
2021/06/08 03:43:05;;;;;;;8.87;8.17;;;;;;;14.39;100.00;96778.22;4992230;28;20720;-82
2021/06/08 03:45:32;;;;;;;8.40;7.70;;;;;;;14.45;100.00;96780.19;4992261;28;20204;-82
2021/06/08 03:48:02;;;;;;;8.23;7.43;;;;;;;14.53;100.00;96784.66;4992452;28;20200;-82
2021/06/08 03:50:30;;;;;;;9.13;8.33;;;;;;;14.63;100.00;96795.84;4992219;28;20212;-82
2021/06/08 03:52:57;;;;;;;9.70;8.80;;;;;;;14.79;100.00;96798.44;4992911;28;20580;-83
2021/06/08 03:55:26;;;;;;;8.10;7.40;;;;;;;14.83;100.00;96801.56;4994998;28;20208;-83
2021/06/08 03:57:55;;;;;;;8.90;8.23;;;;;;;14.76;100.00;96801.44;4993188;28;20657;-82
2021/06/08 04:00:24;;;;;;;9.17;8.37;;;;;;;14.81;100.00;96795.63;4992683;28;20255;-83
2021/06/08 04:02:52;;;;;;;8.73;7.90;;;;;;;14.86;100.00;96802.06;4992385;28;20571;-83
2021/06/08 04:05:21;;;;;;;7.73;7.13;;;;;;;14.91;100.00;96788.28;4992711;28;20197;-83
2021/06/08 04:07:48;;;;;;;7.47;6.87;;;;;;;14.87;100.00;96797.56;4992260;28;20758;-82
2021/06/08 04:10:18;;;;;;;8.17;7.57;;;;;;;14.93;100.00;96800.34;4992285;28;20201;-83
2021/06/08 04:12:45;;;;;;;7.63;7.03;;;;;;;14.99;100.00;96798.81;4991423;28;20299;-83
2021/06/08 04:15:13;;;;;;;7.40;6.80;;;;;;;14.96;100.00;96800.03;4991724;28;20196;-83
2021/06/08 04:17:40;;;;;;;7.90;7.20;;;;;;;15.04;100.00;96801.78;4992019;28;20206;-83
2021/06/08 04:20:09;;;;;;;8.73;8.03;;;;;;;14.94;100.00;96804.66;4991898;28;20666;-83
2021/06/08 04:22:39;;;;;;;8.67;8.03;;;;;;;15.03;100.00;96801.94;4991929;28;20320;-83
2021/06/08 04:25:08;;;;;;;7.90;7.30;;;;;;;15.07;100.00;96816.50;4991665;28;20196;-83
2021/06/08 04:27:35;;;;;;;8.20;7.60;;;;;;;15.09;100.00;96812.69;4991924;28;20196;-82
2021/06/08 04:30:05;;;;;;;8.63;7.83;;;;;;;15.15;100.00;96806.69;4991980;28;20255;-83
2021/06/08 04:32:33;;;;;;;8.90;8.20;;;;;;;15.20;100.00;96820.22;4992965;28;20200;-83
2021/06/08 04:35:00;;;;;;;8.60;7.90;;;;;;;15.18;100.00;96824.06;4992487;28;20240;-82
2021/06/08 04:37:27;;;;;;;9.43;8.50;;;;;;;15.23;100.00;96819.06;4992758;28;20678;-83
2021/06/08 04:39:56;;;;;;;9.70;8.90;;;;;;;15.42;100.00;96828.41;4992655;28;20255;-83
2021/06/08 04:42:23;;;;;;;9.37;8.57;;;;;;;15.45;100.00;96839.47;4992418;28;20230;-83
2021/06/08 04:44:51;;;;;;;10.13;9.33;;;;;;;15.35;100.00;96854.75;4992472;28;20198;-84
2021/06/08 04:47:20;;;;;;;10.93;9.93;;;;;;;15.41;100.00;96867.31;4992707;28;20206;-83
2021/06/08 04:49:47;;;;;;;10.77;9.87;;;;;;;15.66;100.00;96880.44;4992827;28;20197;-82
2021/06/08 04:52:14;;;;;;;8.50;7.90;;;;;;;15.90;100.00;96890.88;4992912;28;20198;-82
2021/06/08 04:54:42;;;;;;;9.63;8.83;;;;;;;15.94;100.00;96907.25;4992249;28;20205;-83
2021/06/08 04:57:12;;;;;;;9.90;8.53;;;;;;;16.05;100.00;96906.81;4992692;28;20196;-82
2021/06/08 04:59:44;;;;;;;10.40;9.40;;;;;;;16.15;100.00;96912.72;4992908;28;20209;-82
2021/06/08 05:02:18;;;;;;;8.77;8.07;;;;;;;16.28;100.00;96909.47;4992326;28;20205;-83
2021/06/08 05:04:45;;;;;;;8.53;7.70;;;;;;;16.43;100.00;96895.41;4992609;28;20344;-83
2021/06/08 05:07:17;;;;;;;8.73;8.13;;;;;;;16.43;100.00;96887.47;4992517;28;20209;-82
2021/06/08 05:09:47;;;;;;;9.27;8.53;;;;;;;16.57;100.00;96870.75;4992567;28;20198;-83
2021/06/08 05:12:19;;;;;;;9.30;8.53;;;;;;;16.69;100.00;96847.22;4992287;28;20218;-83
2021/06/08 05:14:50;;;;;;;8.43;7.73;;;;;;;16.84;100.00;96825.00;4992669;28;20572;-83
2021/06/08 05:17:19;;;;;;;8.20;7.50;;;;;;;16.90;100.00;96812.00;4992519;28;20198;-83
2021/06/08 05:19:48;;;;;;;9.13;8.43;;;;;;;17.05;100.00;96799.53;4992116;28;20206;-83
2021/06/08 05:22:19;;;;;;;9.10;8.40;;;;;;;17.13;100.00;96777.34;4992330;28;20669;-83
2021/06/08 05:24:49;;;;;;;9.10;8.30;;;;;;;17.20;100.00;96771.09;4980763;28;20204;-83
2021/06/08 05:27:18;;;;;;;8.40;7.70;;;;;;;17.44;100.00;96750.50;4976518;28;20204;-82
2021/06/08 05:29:45;;;;;;;14.00;8.17;;;;;;;17.34;100.00;96741.00;4974843;28;20203;-83
2021/06/08 05:32:13;;;;;;;8.03;7.43;;;;;;;17.51;100.00;96733.59;4976787;28;20205;-83
2021/06/08 05:34:42;;;;;;;8.00;7.37;;;;;;;17.72;100.00;96716.81;4976585;28;20243;-83
2021/06/08 05:37:11;;;;;;;8.83;7.93;;;;;;;17.92;100.00;96701.03;4976441;28;20205;-83
2021/06/08 05:39:39;;;;;;;7.47;6.83;;;;;;;17.98;100.00;96696.78;4976722;28;20221;-83
2021/06/08 05:42:08;;;;;;;8.50;7.67;;;;;;;18.23;100.00;96695.31;4976676;28;20204;-83
2021/06/08 05:44:37;;;;;;;8.77;7.97;;;;;;;18.33;100.00;96683.50;4976359;28;20208;-83
2021/06/08 05:47:05;;;;;;;7.17;6.57;;;;;;;18.64;100.00;96670.53;4976604;28;20614;-83
2021/06/08 05:49:36;;;;;;;6.87;6.37;;;;;;;18.68;100.00;96649.63;4976430;28;20243;-83
2021/06/08 05:52:05;;;;;;;7.53;6.90;;;;;;;18.93;100.00;96644.59;4976704;28;20188;-83
2021/06/08 05:54:32;;;;;;;6.70;6.20;;;;;;;19.12;100.00;96625.19;4976358;28;20201;-83
2021/06/08 05:56:59;;;;;;;7.30;6.60;;;;;;;19.25;100.00;96617.19;4976485;28;20200;-83
2021/06/08 05:59:27;;;;;;;6.67;6.17;;;;;;;19.41;100.00;96609.81;4976102;28;20201;-83
2021/06/08 06:01:55;;;;;;;6.43;5.93;;;;;;;19.62;100.00;96598.91;4976596;28;20662;-83
2021/06/08 06:04:24;;;;;;;6.50;5.90;;;;;;;19.62;100.00;96598.91;4975969;28;20228;-83
2021/06/08 06:06:52;;;;;;;7.13;6.53;;;;;;;19.56;100.00;96599.75;4976155;28;20298;-83
2021/06/08 06:09:22;;;;;;;8.23;6.20;;;;;;;19.73;100.00;96602.00;4975734;28;20205;-83
2021/06/08 06:11:51;;;;;;;9.07;6.57;;;;;;;19.96;100.00;96599.72;4976116;28;20255;-83
2021/06/08 06:14:21;;;;;;;6.57;6.03;;;;;;;20.09;100.00;96609.50;4975968;28;20231;-83
2021/06/08 06:16:52;;;;;;;6.27;5.67;;;;;;;19.99;100.00;96627.81;4976563;28;20213;-82
2021/06/08 06:19:22;;;;;;;5.60;5.20;;;;;;;20.24;100.00;96630.63;4975666;28;20189;-83
2021/06/08 06:21:49;;;;;;;6.60;6.10;;;;;;;20.65;100.00;96644.44;4976447;28;20216;-83
2021/06/08 06:24:17;;;;;;;7.87;7.17;;;;;;;21.13;100.00;96670.69;4975745;28;20224;-83
2021/06/08 06:26:45;;;;;;;7.10;6.40;;;;;;;21.11;100.00;96683.44;4976046;28;20653;-83
2021/06/08 06:29:13;;;;;;;7.53;6.20;;;;;;;21.48;100.00;96690.84;4974491;28;20201;-83
2021/06/08 06:31:44;;;;;;;8.90;6.83;;;;;;;21.70;100.00;96700.13;4974029;28;20260;-83
2021/06/08 06:34:12;;;;;;;6.13;5.63;;;;;;;21.84;100.00;96706.19;4975058;28;20236;-83
2021/06/08 06:36:43;;;;;;;5.60;5.10;;;;;;;21.95;100.00;96713.50;4975580;28;20224;-83
2021/06/08 06:39:14;;;;;;;5.60;5.10;;;;;;;21.93;100.00;96733.50;4975299;28;20197;-83
2021/06/08 06:41:43;;;;;;;5.40;5.00;;;;;;;21.91;100.00;96739.06;4975766;28;20289;-83
2021/06/08 06:44:12;;;;;;;5.70;5.20;;;;;;;22.21;100.00;96773.25;4975276;28;20240;-83
2021/06/08 06:46:40;;;;;;;9.97;5.27;;;;;;;22.38;100.00;96782.34;4975447;28;20216;-83
2021/06/08 06:49:09;;;;;;;5.77;5.33;;;;;;;22.52;100.00;96813.31;4975010;28;20291;-83
2021/06/08 06:51:36;;;;;;;6.60;6.00;;;;;;;22.53;100.00;96851.63;4975279;28;20205;-83
2021/06/08 06:54:05;;;;;;;5.83;5.20;;;;;;;22.82;100.00;96849.28;4975143;28;20193;-83
2021/06/08 06:56:32;;;;;;;5.23;4.90;;;;;;;22.88;100.00;96841.19;4975033;28;20216;-83
2021/06/08 06:58:59;;;;;;;9.80;5.67;;;;;;;22.89;100.00;96877.66;4975090;28;20201;-83
2021/06/08 07:01:27;;;;;;;5.60;5.03;;;;;;;22.93;100.00;96894.16;4975154;28;20201;-83
2021/06/08 07:03:56;;;;;;;5.83;5.33;;;;;;;22.72;100.00;96871.25;4974935;28;20229;-83
2021/06/08 07:06:23;;;;;;;6.10;5.63;;;;;;;22.88;100.00;96923.47;4975130;28;20205;-83
2021/06/08 07:08:53;;;;;;;5.97;5.37;;;;;;;22.94;100.00;96926.13;4974726;28;20196;-83
2021/06/08 07:11:24;;;;;;;5.20;4.80;;;;;;;22.07;100.00;96931.25;4975029;28;20208;-83
2021/06/08 07:13:52;;;;;;;6.97;6.20;;;;;;;21.78;100.00;96943.31;4975192;28;20190;-83
2021/06/08 07:16:22;;;;;;;5.33;4.83;;;;;;;22.48;100.00;96947.88;4975243;28;20197;-83
2021/06/08 07:18:51;;;;;;;5.23;4.83;;;;;;;22.91;100.00;96921.16;4975069;28;20189;-83
2021/06/08 07:21:20;;;;;;;4.90;4.60;;;;;;;23.07;100.00;96901.03;4974981;28;20201;-84
2021/06/08 07:23:50;;;;;;;5.50;5.00;;;;;;;23.30;100.00;96902.22;4974526;28;20275;-83
2021/06/08 07:26:18;;;;;;;5.53;5.03;;;;;;;23.07;100.00;96894.84;4975300;28;20255;-84
2021/06/08 07:28:47;;;;;;;5.53;5.03;;;;;;;22.74;100.00;96930.81;4974536;28;20577;-83
2021/06/08 07:31:23;;;;;;;5.20;4.80;;;;;;;22.91;100.00;96942.59;4974919;28;20650;-84
2021/06/08 07:34:02;;;;;;;5.97;4.60;;;;;;;23.00;100.00;96921.75;4974262;28;20299;-83
2021/06/08 07:36:39;;;;;;;9.87;5.63;;;;;;;23.09;100.00;96941.03;4974658;28;20200;-83
2021/06/08 07:39:19;;;;;;;8.67;7.87;;;;;;;23.27;100.00;97003.53;4974319;28;20189;-83
2021/06/08 07:41:52;;;;;;;7.57;6.80;;;;;;;23.24;100.00;97022.78;4974492;28;20197;-83
2021/06/08 07:44:30;;;;;;;6.70;6.07;;;;;;;23.30;100.00;97015.69;4974068;28;20300;-84
2021/06/08 07:47:01;;;;;;;5.50;5.10;;;;;;;22.73;100.00;97010.38;4973676;28;20189;-84
2021/06/08 07:49:29;;;;;;;5.93;5.33;;;;;;;22.21;100.00;97032.97;4974451;28;20601;-84
2021/06/08 07:51:58;;;;;;;7.07;6.47;;;;;;;21.62;100.00;97071.41;4974516;28;20205;-84
2021/06/08 07:54:27;;;;;;;6.77;6.27;;;;;;;21.92;100.00;97107.34;4973763;28;20200;-83
2021/06/08 07:56:54;;;;;;;6.63;6.13;;;;;;;22.68;100.00;97098.63;4974173;28;20197;-83
2021/06/08 07:59:22;;;;;;;6.67;6.07;;;;;;;22.61;100.00;97065.69;4973959;28;20197;-84
2021/06/08 08:01:49;;;;;;;9.17;6.67;;;;;;;22.15;100.00;97056.03;4974105;28;20197;-84
2021/06/08 08:04:19;;;;;;;7.63;6.30;;;;;;;22.14;100.00;97078.47;4973781;28;20224;-83
2021/06/08 08:06:49;;;;;;;6.50;6.00;;;;;;;21.92;100.00;97085.13;4973848;28;20235;-83
2021/06/08 08:09:18;;;;;;;6.33;5.83;;;;;;;21.57;100.00;97090.75;4973828;28;20238;-83
2021/06/08 08:11:46;;;;;;;7.40;6.87;;;;;;;21.46;100.00;97100.22;4973926;28;20201;-84
2021/06/08 08:14:15;;;;;;;7.37;6.67;;;;;;;21.37;100.00;97112.16;4973668;28;20208;-84
2021/06/08 08:16:47;;;;;;;7.50;6.90;;;;;;;21.62;100.00;97120.38;4973902;28;20284;-84
2021/06/08 08:19:15;;;;;;;9.10;6.70;;;;;;;21.49;100.00;97120.38;4973912;28;20193;-84
2021/06/08 08:21:43;;;;;;;8.23;6.73;;;;;;;21.17;100.00;97116.66;4974000;28;20204;-84
2021/06/08 08:24:10;;;;;;;16.97;7.77;;;;;;;21.25;100.00;97145.88;4973380;28;20235;-83
2021/06/08 08:26:38;;;;;;;9.87;7.40;;;;;;;21.01;100.00;97148.09;4973444;28;20701;-83
2021/06/08 08:29:05;;;;;;;8.03;7.43;;;;;;;21.15;100.00;97140.91;4973393;28;20296;-83
2021/06/08 08:31:33;;;;;;;7.67;6.97;;;;;;;21.22;100.00;97135.56;4973885;28;20216;-84
2021/06/08 08:34:02;;;;;;;6.87;6.23;;;;;;;21.07;100.00;97127.75;4973096;28;20710;-83
2021/06/08 08:36:33;;;;;;;8.53;7.20;;;;;;;21.04;100.00;97123.63;4973342;28;20197;-83
2021/06/08 08:39:00;;;;;;;8.30;6.90;;;;;;;20.95;100.00;97121.34;4973605;28;20276;-84
2021/06/08 08:41:27;;;;;;;10.07;7.07;;;;;;;21.14;100.00;97128.59;4973587;28;20250;-83
2021/06/08 08:43:54;;;;;;;6.60;6.10;;;;;;;21.17;100.00;97138.06;4973104;28;20225;-83
2021/06/08 08:46:21;;;;;;;7.13;6.30;;;;;;;21.22;100.00;97127.56;4973191;28;20200;-83
2021/06/08 08:48:53;;;;;;;6.87;6.33;;;;;;;21.24;100.00;97126.31;4973143;28;20200;-83
2021/06/08 08:51:23;;;;;;;6.33;5.83;;;;;;;21.70;100.00;97132.72;4973433;28;20193;-83
2021/06/08 08:53:53;;;;;;;6.23;5.73;;;;;;;22.00;100.00;97131.22;4972872;28;20204;-83
2021/06/08 08:56:22;;;;;;;6.07;5.63;;;;;;;22.48;100.00;97111.28;4973789;28;20207;-83
2021/06/08 08:58:49;;;;;;;6.20;5.60;;;;;;;22.52;100.00;97091.91;4973067;28;20205;-83
2021/06/08 09:01:17;;;;;;;6.57;5.07;;;;;;;22.31;100.00;97073.47;4973125;28;20211;-83
2021/06/08 09:03:44;;;;;;;6.00;5.47;;;;;;;22.45;100.00;97061.66;4972761;28;20229;-86
2021/06/08 09:06:12;;;;;;;5.03;4.67;;;;;;;22.79;100.00;97054.22;4973267;28;20193;-82
2021/06/08 09:08:41;;;;;;;5.80;4.67;;;;;;;23.60;100.00;96993.53;4973335;28;20283;-85
2021/06/08 09:11:10;;;;;;;4.53;4.13;;;;;;;24.22;100.00;96939.72;4973081;28;20197;-83
2021/06/08 09:13:38;;;;;;;5.77;4.70;;;;;;;23.76;100.00;96935.75;4972761;28;20204;-83
2021/06/08 09:16:07;;;;;;;4.90;4.40;;;;;;;23.92;100.00;96925.22;4973078;28;20200;-83
2021/06/08 09:18:35;;;;;;;4.40;4.10;;;;;;;24.34;100.00;96897.56;4972805;28;20259;-83
2021/06/08 09:21:16;;;;;;;9.50;5.13;;;;;;;24.87;100.00;96913.69;4972797;28;20235;-83
2021/06/08 09:23:45;;;;;;;4.83;4.30;;;;;;;24.96;100.00;96862.22;4972773;28;20681;-84
2021/06/08 09:26:14;;;;;;;4.37;3.90;;;;;;;25.06;100.00;96841.75;4973336;28;20223;-84
2021/06/08 09:28:41;;;;;;;4.70;3.80;;;;;;;24.68;100.00;96804.63;4973048;28;20216;-84
2021/06/08 09:31:12;;;;;;;4.17;3.87;;;;;;;24.79;100.00;96814.53;4972727;28;20201;-84
2021/06/08 09:33:40;;;;;;;4.03;3.73;;;;;;;24.69;100.00;96817.00;4972537;28;20279;-83
2021/06/08 09:36:08;;;;;;;4.57;4.17;;;;;;;25.10;100.00;96821.38;4972896;28;20208;-84
2021/06/08 09:38:46;;;;;;;4.43;3.93;;;;;;;25.22;100.00;96785.63;4972543;28;20263;-84
2021/06/08 09:41:20;;;;;;;6.00;3.83;;;;;;;25.55;100.00;96790.28;4972689;28;20185;-84
2021/06/08 09:43:56;;;;;;;4.00;3.73;;;;;;;25.77;100.00;96793.94;4972940;28;20268;-84
2021/06/08 09:46:26;;;;;;;5.20;4.63;;;;;;;25.74;100.00;96782.84;4973085;28;20189;-84
2021/06/08 09:48:54;;;;;;;5.97;3.93;;;;;;;25.81;100.00;96762.78;4972592;28;20212;-83
2021/06/08 09:51:22;;;;;;;5.20;4.37;;;;;;;25.92;100.00;96731.47;4972771;28;20291;-84
2021/06/08 09:53:51;;;;;;;5.13;4.83;;;;;;;25.09;100.00;96714.06;4972356;28;20197;-84
2021/06/08 09:56:20;;;;;;;5.53;5.03;;;;;;;25.21;100.00;96747.13;4972773;28;20212;-83
2021/06/08 09:58:48;;;;;;;4.20;3.77;;;;;;;24.98;100.00;96744.50;4972914;28;20700;-84
2021/06/08 10:01:19;;;;;;;4.23;3.93;;;;;;;24.65;100.00;96756.72;4972852;28;20247;-84
2021/06/08 10:03:48;;;;;;;5.63;4.70;;;;;;;24.27;100.00;96792.09;4972539;28;20233;-84
2021/06/08 10:06:16;;;;;;;7.43;4.60;;;;;;;23.94;100.00;96814.94;4972621;28;20225;-84
2021/06/08 10:08:56;;;;;;;4.63;4.03;;;;;;;23.52;100.00;96835.50;4972640;28;20307;-84
2021/06/08 10:11:26;;;;;;;3.30;3.00;;;;;;;22.34;100.00;96912.34;4975478;28;20639;-84
2021/06/08 10:13:59;;;;;;;3.47;3.17;;;;;;;21.81;100.00;96979.56;4975641;28;20674;-83
2021/06/08 10:16:29;;;;;;;5.90;3.83;;;;;;;21.19;100.00;97029.03;4976066;28;20220;-84
2021/06/08 10:18:56;;;;;;;3.93;3.43;;;;;;;20.54;100.00;97048.34;4975788;28;20186;-83
2021/06/08 10:21:41;;;;;;;3.90;3.60;;;;;;;20.19;100.00;97088.47;4975862;28;20204;-84
2021/06/08 10:24:11;;;;;;;4.87;4.30;;;;;;;20.27;100.00;97105.31;4975703;28;20209;-83
2021/06/08 10:26:40;;;;;;;5.77;4.47;;;;;;;20.21;100.00;97146.16;4975738;28;20186;-84
2021/06/08 10:29:09;;;;;;;5.07;4.03;;;;;;;20.20;100.00;97174.69;4976024;28;20201;-84
2021/06/08 10:31:38;;;;;;;5.90;4.43;;;;;;;20.25;100.00;97214.13;4975772;28;20208;-84
2021/06/08 10:34:07;;;;;;;11.30;5.80;;;;;;;19.96;100.00;97264.03;4975279;28;20663;-86
2021/06/08 10:36:35;;;;;;;7.33;4.53;;;;;;;19.78;100.00;97293.84;4975697;28;20222;-87
2021/06/08 10:39:04;;;;;;;7.20;4.33;;;;;;;19.47;100.00;97297.63;4976477;28;20235;-88
2021/06/08 10:41:35;;;;;;;7.20;4.07;;;;;;;19.07;100.00;97276.88;4976083;28;20747;-88
2021/06/08 10:44:05;;;;;;;6.03;3.80;;;;;;;18.91;100.00;97245.94;4975803;28;20217;-86
2021/06/08 10:46:36;;;;;;;3.87;3.53;;;;;;;18.45;100.00;97254.16;4975577;28;20204;-86
2021/06/08 11:01:58;;;;;;;5.50;3.37;;;;;;;17.73;100.00;97010.88;5090222;27;20537;-87
2021/06/08 11:04:28;;;;;;;4.80;2.53;;;;;;;17.67;100.00;96971.78;5089862;28;20196;-87
2021/06/08 11:06:59;;;;;;;3.93;3.00;;;;;;;17.71;100.00;96938.47;5090201;28;20628;-87
2021/06/08 11:09:32;;;;;;;4.03;2.93;;;;;;;17.50;100.00;96925.16;5089663;28;20224;-87
2021/06/08 11:12:02;;;;;;;2.80;2.60;;;;;;;17.40;100.00;96908.66;5089854;28;20580;-87
2021/06/08 11:14:58;;;;;;;5.37;3.50;;;;;;;17.53;100.00;96876.94;5089679;28;20193;-87
2021/06/08 11:17:44;;;;;;;4.33;2.77;;;;;;;17.45;100.00;96779.53;5089926;28;20184;-87
2021/06/08 11:20:22;;;;;;;3.60;2.40;;;;;;;17.38;100.00;96714.06;5068814;28;20177;-87
2021/06/08 11:22:54;;;;;;;7.50;3.40;;;;;;;17.50;100.00;96680.66;5069141;28;20201;-87
2021/06/08 11:25:42;;;;;;;5.20;2.90;;;;;;;17.77;100.00;96653.28;5068903;28;20182;-87
2021/06/08 11:28:12;;;;;;;6.47;3.43;;;;;;;17.77;100.00;96647.16;5069124;28;20280;-87
2021/06/08 11:30:42;;;;;;;4.97;3.43;;;;;;;17.69;100.00;96626.00;5068575;28;20221;-86
2021/06/08 11:33:31;;;;;;;6.40;3.77;;;;;;;17.98;100.00;96595.72;5069449;28;20220;-86
2021/06/08 11:35:59;;;;;;;4.03;2.60;;;;;;;17.77;100.00;96597.47;5068756;28;20192;-86
2021/06/08 11:38:29;;;;;;;2.83;2.57;;;;;;;18.03;100.00;96567.50;5068847;28;20190;-87
2021/06/08 11:41:01;;;;;;;5.17;3.20;;;;;;;18.10;100.00;96562.22;5068813;28;20197;-87
2021/06/08 11:43:46;;;;;;;3.43;3.13;;;;;;;17.87;100.00;96559.03;5069024;28;20189;-87
2021/06/08 11:46:15;;;;;;;3.40;2.63;;;;;;;17.86;100.00;96574.19;5068553;28;20198;-87
2021/06/08 11:48:44;;;;;;;3.03;2.83;;;;;;;18.15;100.00;96551.81;5068428;28;20197;-86